createdAt,value
2022-12-19T00:00:32.858Z,102091.72
2022-12-19T00:05:39.194Z,102083.00
2022-12-19T00:10:41.420Z,102080.56
2022-12-19T00:15:43.195Z,102068.81
2022-12-19T00:20:44.597Z,102068.66
2022-12-19T00:25:46.071Z,102049.72
2022-12-19T00:30:48.776Z,102040.66
2022-12-19T00:35:50.265Z,102037.22
2022-12-19T00:40:51.736Z,102034.66
2022-12-19T00:45:53.155Z,102034.75
2022-12-19T00:51:02.472Z,102031.19
2022-12-19T00:56:06.178Z,102032.94
2022-12-19T01:01:33.299Z,102024.34
2022-12-19T01:06:34.910Z,102016.53
2022-12-19T01:11:54.848Z,102017.06
2022-12-19T01:16:56.630Z,102020.47
2022-12-19T01:21:58.051Z,102009.59
2022-12-19T01:27:00.385Z,102000.91
2022-12-19T01:32:01.897Z,101992.13
2022-12-19T01:37:03.477Z,101989.78
2022-12-19T01:42:18.466Z,101990.69
2022-12-19T01:47:25.273Z,101971.88
2022-12-19T01:52:26.771Z,101968.22
2022-12-19T01:57:29.342Z,101957.78
2022-12-19T02:02:43.331Z,101948.66
2022-12-19T02:07:46.041Z,101941.53
2022-12-19T02:12:47.539Z,101929.97
2022-12-19T02:17:51.302Z,101918.97
2022-12-19T02:23:00.576Z,101906.53
2022-12-19T02:28:30.411Z,101904.72
2022-12-19T02:33:46.435Z,101894.50
2022-12-19T02:38:58.047Z,101877.75
2022-12-19T02:44:00.334Z,101878.09
2022-12-19T02:49:02.484Z,101877.50
2022-12-19T02:54:05.382Z,101868.13
2022-12-19T02:59:31.276Z,101866.50
2022-12-19T03:04:52.100Z,101862.38
2022-12-19T03:10:15.636Z,101854.16
2022-12-19T03:15:17.696Z,101842.28
2022-12-19T03:20:47.945Z,101849.28
2022-12-19T03:25:54.216Z,101840.47
2022-12-19T03:30:59.690Z,101828.69
2022-12-19T03:36:04.907Z,101812.31
2022-12-19T03:41:09.904Z,101804.94
2022-12-19T03:46:20.591Z,101800.91
2022-12-19T03:51:22.039Z,101800.88
2022-12-19T03:56:26.659Z,101791.78
2022-12-19T04:01:29.221Z,101780.34
2022-12-19T04:06:34.360Z,101785.34
2022-12-19T04:11:41.901Z,101777.84
2022-12-19T04:17:04.463Z,101773.06
2022-12-19T04:22:15.404Z,101764.97
2022-12-19T04:27:18.195Z,101762.34
2022-12-19T04:32:20.909Z,101749.72
2022-12-19T04:37:22.380Z,101735.09
2022-12-19T04:42:23.820Z,101739.53
2022-12-19T04:47:25.468Z,101715.84
2022-12-19T04:52:26.967Z,101705.13
2022-12-19T04:57:31.754Z,101706.03
2022-12-19T05:02:33.291Z,101701.50
2022-12-19T05:07:34.861Z,101689.84
2022-12-19T05:12:36.316Z,101675.53
2022-12-19T05:17:37.963Z,101670.75
2022-12-19T05:22:39.378Z,101669.16
2022-12-19T05:27:40.878Z,101662.53
2022-12-19T05:32:42.604Z,101656.84
2022-12-19T05:37:44.010Z,101649.53
2022-12-19T05:42:45.550Z,101641.69
2022-12-19T05:47:47.933Z,101631.75
2022-12-19T05:52:49.442Z,101632.88
2022-12-19T05:57:50.873Z,101623.41
2022-12-19T06:02:52.426Z,101621.13
2022-12-19T06:07:54.399Z,101617.97
2022-12-19T06:12:55.947Z,101595.63
2022-12-19T06:17:57.489Z,101589.00
2022-12-19T06:22:59.229Z,101583.16
2022-12-19T06:28:00.687Z,101578.91
2022-12-19T06:33:02.215Z,101584.28
2022-12-19T06:38:03.650Z,101584.41
2022-12-19T06:43:05.176Z,101588.06
2022-12-19T06:48:06.727Z,101579.88
2022-12-19T06:53:08.141Z,101568.75
2022-12-19T06:58:09.974Z,101570.53
2022-12-19T07:03:14.800Z,101560.72
2022-12-19T07:08:16.442Z,101568.47
2022-12-19T07:13:17.860Z,101563.56
2022-12-19T07:18:19.445Z,101559.34
2022-12-19T07:23:22.046Z,101557.22
2022-12-19T07:28:23.791Z,101541.13
2022-12-19T07:33:25.256Z,101531.53
2022-12-19T07:38:26.754Z,101516.94
2022-12-19T07:43:28.288Z,101522.25
2022-12-19T07:48:31.811Z,101506.66
2022-12-19T07:53:33.273Z,101518.31
2022-12-19T07:58:34.768Z,101514.31
2022-12-19T08:03:36.222Z,101507.66
2022-12-19T08:08:37.984Z,101505.28
2022-12-19T08:13:46.001Z,101504.63
2022-12-19T08:18:48.213Z,101498.88
2022-12-19T08:23:49.960Z,101486.72
2022-12-19T08:28:53.120Z,101488.59
2022-12-19T08:33:56.877Z,101485.13
2022-12-19T08:38:58.377Z,101480.91
2022-12-19T08:44:01.784Z,101474.22
2022-12-19T08:49:03.581Z,101463.03
2022-12-19T08:54:07.755Z,101476.16
2022-12-19T08:59:12.388Z,101448.09
2022-12-19T09:05:19.497Z,101451.63
2022-12-19T09:09:36.586Z,101458.66
2022-12-19T09:14:38.078Z,101436.44
2022-12-19T09:19:41.215Z,101428.78
2022-12-19T09:24:47.114Z,101422.84
2022-12-19T09:29:48.663Z,101414.13
2022-12-19T09:34:50.125Z,101410.06
2022-12-19T09:39:51.584Z,101412.66
2022-12-19T09:45:09.190Z,101411.88
2022-12-19T09:50:53.607Z,101398.28
2022-12-19T09:55:58.318Z,101402.78
2022-12-19T10:01:04.513Z,101402.81
2022-12-19T10:07:22.062Z,101394.13
2022-12-19T10:12:46.642Z,101397.66
2022-12-19T10:17:33.194Z,101381.50
2022-12-19T10:22:43.868Z,101376.41
2022-12-19T10:28:09.616Z,101390.94
2022-12-19T10:33:22.657Z,101369.53
2022-12-19T10:38:31.854Z,101364.41
2022-12-19T10:43:46.564Z,101355.88
2022-12-19T10:48:50.590Z,101351.72
2022-12-19T10:53:57.429Z,101327.75
2022-12-19T10:59:00.451Z,101320.06
2022-12-19T11:04:25.633Z,101332.22
2022-12-19T11:09:35.918Z,101316.84
2022-12-19T11:17:51.078Z,101319.47
2022-12-19T11:29:43.816Z,101303.13
2022-12-19T11:30:38.647Z,101296.28
2022-12-19T11:37:03.189Z,101280.94
2022-12-19T11:42:07.651Z,101272.28
2022-12-19T11:47:29.071Z,101274.00
2022-12-19T11:58:01.871Z,101256.94
2022-12-19T12:03:18.802Z,101248.44
2022-12-19T12:10:19.549Z,101253.66
2022-12-19T12:24:21.294Z,101252.84
2022-12-19T12:31:31.133Z,101241.72
2022-12-19T12:32:00.975Z,101244.31
2022-12-19T12:43:23.679Z,101230.03
2022-12-19T12:48:46.088Z,101225.75
2022-12-19T12:53:49.390Z,101234.50
2022-12-19T12:58:54.011Z,101227.50
2022-12-19T13:04:11.061Z,101229.34
2022-12-19T13:09:28.479Z,101223.34
2022-12-19T13:14:35.778Z,101222.59
2022-12-19T13:19:53.163Z,101207.91
2022-12-19T13:24:57.044Z,101206.22
2022-12-19T13:30:01.302Z,101201.06
2022-12-19T13:35:50.734Z,101202.81
2022-12-19T13:40:33.174Z,101195.91
2022-12-19T13:45:35.239Z,101192.47
2022-12-19T13:50:41.340Z,101191.66
2022-12-19T13:55:42.788Z,101194.19
2022-12-19T14:00:47.443Z,101190.03
2022-12-19T14:06:18.457Z,101190.88
2022-12-19T14:11:41.032Z,101181.50
2022-12-19T14:16:44.411Z,101175.56
2022-12-19T14:22:07.141Z,101185.88
2022-12-19T14:28:21.569Z,101190.25
2022-12-19T14:33:44.840Z,101182.47
2022-12-19T14:39:19.797Z,101183.38
2022-12-19T14:43:59.488Z,101179.13
2022-12-19T14:52:51.693Z,101167.94
2022-12-19T14:59:47.776Z,101147.31
2022-12-19T15:05:04.003Z,101164.59
2022-12-19T15:11:07.603Z,101174.97
2022-12-19T15:15:51.672Z,101171.50
2022-12-19T15:20:56.621Z,101161.16
2022-12-19T15:26:06.208Z,101153.47
2022-12-19T15:31:34.748Z,101148.31
2022-12-19T15:36:36.938Z,101154.31
2022-12-19T15:41:38.471Z,101159.47
2022-12-19T15:46:44.712Z,101148.34
2022-12-19T15:51:50.555Z,101142.28
2022-12-19T15:56:54.998Z,101133.69
2022-12-19T16:01:57.464Z,101127.69
2022-12-19T16:06:59.072Z,101123.38
2022-12-19T16:12:00.634Z,101118.22
2022-12-19T16:17:02.197Z,101125.91
2022-12-19T16:22:17.560Z,101116.47
2022-12-19T16:27:28.014Z,101112.13
2022-12-19T16:32:29.449Z,101115.59
2022-12-19T16:37:32.562Z,101105.28
2022-12-19T16:42:34.210Z,101108.75
2022-12-19T16:47:35.754Z,101101.84
2022-12-19T16:52:42.353Z,101101.00
2022-12-19T16:57:46.529Z,101094.13
2022-12-19T17:02:53.219Z,101091.53
2022-12-19T17:07:55.286Z,101083.78
2022-12-19T17:12:58.252Z,101083.81
2022-12-19T17:18:14.192Z,101081.22
2022-12-19T17:23:19.039Z,101085.53
2022-12-19T17:28:20.649Z,101083.84
2022-12-19T17:33:24.192Z,101089.88
2022-12-19T17:38:27.196Z,101083.00
2022-12-19T17:43:28.847Z,101083.00
2022-12-19T17:48:32.702Z,101082.13
2022-12-19T17:53:34.171Z,101076.97
2022-12-19T17:58:35.654Z,101079.56
2022-12-19T18:03:37.245Z,101082.13
2022-12-19T18:08:38.834Z,101076.06
2022-12-19T18:13:40.297Z,101084.69
2022-12-19T18:18:41.964Z,101081.25
2022-12-19T18:23:44.518Z,101067.41
2022-12-19T18:28:46.303Z,101064.81
2022-12-19T18:33:48.032Z,101062.16
2022-12-19T18:38:50.214Z,101067.34
2022-12-19T18:43:51.765Z,101070.78
2022-12-19T18:48:53.238Z,101076.81
2022-12-19T18:53:56.955Z,101080.22
2022-12-19T18:58:58.453Z,101083.72
2022-12-19T19:04:00.181Z,101082.00
2022-12-19T19:09:01.914Z,101081.13
2022-12-19T19:14:03.423Z,101078.56
2022-12-19T19:19:07.045Z,101067.34
2022-12-19T19:24:15.141Z,101063.91
2022-12-19T19:29:18.978Z,101075.97
2022-12-19T19:34:31.248Z,101078.53
2022-12-19T19:39:34.319Z,101088.91
2022-12-19T19:44:35.921Z,101083.72
2022-12-19T19:49:37.387Z,101094.09
2022-12-19T19:54:38.817Z,101101.00
2022-12-19T19:59:40.484Z,101082.88
2022-12-19T20:04:42.017Z,101089.75
2022-12-19T20:09:43.723Z,101093.22
2022-12-19T20:14:45.250Z,101095.81
2022-12-19T20:19:46.854Z,101098.38
2022-12-19T20:24:48.381Z,101110.50
2022-12-19T20:29:50.162Z,101099.22
2022-12-19T20:34:51.641Z,101100.06
2022-12-19T20:39:53.134Z,101126.03
2022-12-19T20:44:54.606Z,101135.53
2022-12-19T20:49:56.024Z,101128.63
2022-12-19T20:54:57.490Z,101132.94
2022-12-19T20:59:59.174Z,101139.88
2022-12-19T21:05:00.726Z,101148.50
2022-12-19T21:10:02.260Z,101146.78
2022-12-19T21:15:04.127Z,101144.16
2022-12-19T21:20:06.393Z,101140.69
2022-12-19T21:25:08.478Z,101140.72
2022-12-19T21:30:10.333Z,101130.34
2022-12-19T21:35:12.104Z,101119.13
2022-12-19T21:40:13.935Z,101128.66
2022-12-19T21:45:15.879Z,101116.56
2022-12-19T21:50:17.693Z,101119.13
2022-12-19T21:55:19.213Z,101111.38
2022-12-19T22:00:20.878Z,101107.06
2022-12-19T22:05:22.350Z,101105.31
2022-12-19T22:10:23.884Z,101103.59
2022-12-19T22:15:25.324Z,101090.56
2022-12-19T22:20:26.801Z,101095.81
2022-12-19T22:25:28.276Z,101087.09
2022-12-19T22:30:33.067Z,101074.22
2022-12-19T22:35:34.639Z,101081.94
2022-12-19T22:40:36.559Z,101076.72
2022-12-19T22:45:38.075Z,101084.50
2022-12-19T22:50:45.411Z,101083.63
2022-12-19T22:55:46.866Z,101081.88
2022-12-19T23:00:48.343Z,101087.97
2022-12-19T23:05:51.995Z,101081.88
2022-12-19T23:10:54.738Z,101085.34
2022-12-19T23:15:57.289Z,101074.13
2022-12-19T23:21:13.144Z,101068.09
2022-12-19T23:26:21.437Z,101077.59
2022-12-19T23:31:23.780Z,101074.13
2022-12-19T23:41:47.739Z,101082.78
2022-12-19T23:46:49.385Z,101071.50
2022-12-19T23:51:50.879Z,101068.91
2022-12-19T23:56:53.356Z,101069.78
